createdAt,value
2022-09-09T00:01:38.085Z,11.01
2022-09-09T00:04:37.650Z,10.99
2022-09-09T00:07:53.558Z,10.73
2022-09-09T00:11:02.615Z,10.89
2022-09-09T00:14:05.259Z,11.05
2022-09-09T00:17:13.041Z,10.93
2022-09-09T00:20:20.029Z,11.24
2022-09-09T00:23:33.669Z,11.22
2022-09-09T00:26:41.378Z,10.90
2022-09-09T00:29:57.039Z,10.77
2022-09-09T00:33:03.777Z,10.81
2022-09-09T00:36:03.189Z,10.57
2022-09-09T00:39:02.690Z,10.92
2022-09-09T00:42:19.333Z,10.89
2022-09-09T00:45:16.064Z,10.86
2022-09-09T00:48:14.384Z,10.67
2022-09-09T00:51:25.324Z,10.55
2022-09-09T00:54:43.242Z,10.72
2022-09-09T00:57:41.934Z,10.68
2022-09-09T01:00:50.185Z,10.62
2022-09-09T01:03:56.814Z,10.44
2022-09-09T01:07:13.319Z,10.60
2022-09-09T01:10:50.265Z,10.63
2022-09-09T01:13:53.317Z,10.67
2022-09-09T01:16:51.961Z,10.68
2022-09-09T01:20:24.823Z,10.53
2022-09-09T01:24:05.405Z,10.37
2022-09-09T01:27:08.693Z,10.43
2022-09-09T01:30:16.742Z,10.64
2022-09-09T01:33:18.910Z,10.50
2022-09-09T01:36:34.696Z,10.45
2022-09-09T01:39:33.071Z,10.87
2022-09-09T01:42:29.964Z,10.89
2022-09-09T01:45:27.216Z,10.78
2022-09-09T01:48:26.044Z,10.88
2022-09-09T01:51:23.665Z,10.63
2022-09-09T01:54:23.311Z,10.80
2022-09-09T01:57:54.355Z,10.60
2022-09-09T02:01:19.394Z,10.67
2022-09-09T02:04:40.991Z,10.50
2022-09-09T02:07:50.365Z,10.27
2022-09-09T02:10:58.772Z,10.16
2022-09-09T02:14:24.722Z,10.56
2022-09-09T02:17:37.262Z,10.34
2022-09-09T02:20:35.824Z,10.52
2022-09-09T02:23:35.231Z,10.80
2022-09-09T02:26:34.873Z,10.61
2022-09-09T02:29:42.263Z,10.84
2022-09-09T02:32:40.743Z,10.76
2022-09-09T02:35:39.008Z,10.96
2022-09-09T02:38:42.678Z,10.72
2022-09-09T02:41:42.331Z,10.88
2022-09-09T02:44:39.319Z,10.79
2022-09-09T02:48:23.784Z,10.78
2022-09-09T02:51:53.062Z,10.75
2022-09-09T02:54:56.517Z,11.03
2022-09-09T02:57:55.030Z,11.07
2022-09-09T03:00:54.060Z,10.72
2022-09-09T03:03:51.030Z,10.86
2022-09-09T03:06:48.504Z,10.86
2022-09-09T03:09:46.546Z,10.97
2022-09-09T03:12:43.912Z,10.91
2022-09-09T03:15:40.832Z,10.86
2022-09-09T03:18:37.691Z,10.87
2022-09-09T03:21:34.548Z,11.05
2022-09-09T03:24:31.427Z,11.19
2022-09-09T03:27:28.316Z,11.22
2022-09-09T03:30:27.590Z,11.03
2022-09-09T03:33:24.634Z,11.00
2022-09-09T03:36:21.483Z,11.44
2022-09-09T03:39:18.301Z,11.05
2022-09-09T03:42:19.146Z,11.24
2022-09-09T03:45:16.271Z,11.31
2022-09-09T03:48:13.108Z,11.37
2022-09-09T03:51:09.913Z,11.27
2022-09-09T03:54:09.221Z,11.17
2022-09-09T03:57:06.269Z,11.23
2022-09-09T04:00:08.890Z,11.24
2022-09-09T04:03:06.988Z,11.27
2022-09-09T04:06:07.277Z,11.42
2022-09-09T04:09:04.098Z,11.35
2022-09-09T04:12:00.934Z,11.43
2022-09-09T04:14:57.930Z,11.39
2022-09-09T04:17:54.726Z,11.37
2022-09-09T04:20:53.685Z,11.50
2022-09-09T04:23:50.515Z,11.47
2022-09-09T04:26:48.133Z,11.65
2022-09-09T04:29:45.081Z,11.66
2022-09-09T04:32:42.978Z,11.84
2022-09-09T04:35:44.519Z,11.54
2022-09-09T04:38:41.397Z,11.86
2022-09-09T04:41:38.719Z,11.75
2022-09-09T04:44:35.590Z,11.99
2022-09-09T04:47:32.847Z,11.55
2022-09-09T04:50:29.709Z,11.89
2022-09-09T04:53:27.216Z,11.86
2022-09-09T04:56:24.467Z,11.92
2022-09-09T04:59:22.658Z,11.89
2022-09-09T05:02:19.704Z,11.73
2022-09-09T05:05:17.568Z,11.91
2022-09-09T05:08:14.356Z,11.98
2022-09-09T05:11:26.754Z,12.13
2022-09-09T05:14:23.631Z,12.10
2022-09-09T05:17:20.559Z,12.02
2022-09-09T05:20:17.675Z,12.00
2022-09-09T05:23:14.552Z,12.01
2022-09-09T05:26:19.506Z,12.13
2022-09-09T05:29:20.216Z,12.13
2022-09-09T05:32:17.503Z,12.17
2022-09-09T05:35:14.476Z,12.24
2022-09-09T05:38:11.263Z,12.27
2022-09-09T05:41:09.365Z,12.47
2022-09-09T05:44:07.150Z,12.38
2022-09-09T05:47:04.469Z,12.73
2022-09-09T05:50:01.314Z,12.74
2022-09-09T05:52:58.097Z,12.60
2022-09-09T05:56:15.161Z,12.71
2022-09-09T05:59:13.528Z,12.97
2022-09-09T06:02:10.759Z,12.79
2022-09-09T06:05:09.382Z,12.74
2022-09-09T06:08:06.193Z,12.79
2022-09-09T06:11:07.897Z,12.74
2022-09-09T06:14:05.538Z,12.79
2022-09-09T06:17:03.402Z,12.97
2022-09-09T06:20:00.207Z,13.22
2022-09-09T06:22:56.987Z,13.48
2022-09-09T06:26:12.953Z,13.57
2022-09-09T06:29:10.715Z,13.62
2022-09-09T06:32:09.561Z,13.59
2022-09-09T06:35:07.127Z,13.70
2022-09-09T06:38:04.605Z,13.91
2022-09-09T06:41:02.764Z,14.12
2022-09-09T06:43:59.632Z,14.26
2022-09-09T06:46:56.444Z,14.20
2022-09-09T06:49:53.650Z,14.12
2022-09-09T06:52:50.426Z,14.24
2022-09-09T06:55:47.813Z,14.19
2022-09-09T06:58:45.115Z,14.15
2022-09-09T07:01:53.613Z,14.20
2022-09-09T07:04:52.590Z,14.26
2022-09-09T07:07:49.417Z,14.26
2022-09-09T07:10:46.198Z,14.20
2022-09-09T07:13:43.169Z,14.17
2022-09-09T07:16:40.431Z,14.28
2022-09-09T07:19:38.150Z,14.23
2022-09-09T07:22:34.950Z,14.28
2022-09-09T07:25:31.781Z,14.17
2022-09-09T07:28:29.923Z,14.20
2022-09-09T07:31:31.764Z,14.32
2022-09-09T07:34:28.736Z,14.40
2022-09-09T07:37:25.563Z,14.50
2022-09-09T07:40:23.157Z,14.64
2022-09-09T07:43:20.252Z,14.66
2022-09-09T07:46:20.398Z,14.73
2022-09-09T07:49:22.793Z,14.88
2022-09-09T07:52:23.299Z,14.97
2022-09-09T07:55:21.365Z,14.85
2022-09-09T07:58:18.171Z,14.97
2022-09-09T08:01:29.587Z,15.08
2022-09-09T08:04:29.015Z,15.08
2022-09-09T08:07:25.907Z,15.00
2022-09-09T08:10:22.943Z,14.88
2022-09-09T08:13:20.156Z,14.92
2022-09-09T08:16:22.843Z,14.94
2022-09-09T08:19:19.696Z,14.89
2022-09-09T08:22:16.493Z,14.79
2022-09-09T08:25:13.503Z,14.74
2022-09-09T08:28:11.213Z,14.82
2022-09-09T08:31:17.535Z,14.85
2022-09-09T08:34:16.026Z,14.85
2022-09-09T08:37:12.854Z,14.87
2022-09-09T08:40:34.940Z,15.08
2022-09-09T08:43:33.466Z,15.01
2022-09-09T08:47:08.419Z,15.06
2022-09-09T08:50:39.526Z,15.12
2022-09-09T08:53:48.492Z,15.15
2022-09-09T08:56:45.533Z,15.18
2022-09-09T08:59:42.333Z,15.10
2022-09-09T09:03:06.840Z,15.18
2022-09-09T09:06:31.916Z,15.16
2022-09-09T09:09:46.905Z,15.31
2022-09-09T09:12:45.847Z,15.57
2022-09-09T09:15:45.302Z,15.65
2022-09-09T09:18:43.240Z,15.75
2022-09-09T09:21:45.042Z,16.42
2022-09-09T09:24:44.770Z,16.45
2022-09-09T09:28:11.421Z,16.04
2022-09-09T09:31:12.465Z,16.23
2022-09-09T09:34:12.064Z,16.39
2022-09-09T09:37:29.414Z,16.46
2022-09-09T09:40:26.293Z,16.62
2022-09-09T09:43:36.023Z,16.77
2022-09-09T09:46:33.697Z,16.66
2022-09-09T09:49:30.602Z,16.75
2022-09-09T09:52:33.151Z,16.89
2022-09-09T09:55:34.558Z,16.86
2022-09-09T09:58:51.098Z,16.75
2022-09-09T10:01:48.183Z,16.96
2022-09-09T10:04:48.747Z,17.04
2022-09-09T10:07:48.979Z,17.35
2022-09-09T10:10:57.619Z,18.53
2022-09-09T10:14:21.920Z,18.70
2022-09-09T10:17:36.708Z,18.46
2022-09-09T10:20:47.283Z,18.65
2022-09-09T10:24:24.066Z,18.15
2022-09-09T10:28:06.317Z,18.00
2022-09-09T10:31:26.168Z,18.17
2022-09-09T10:35:02.492Z,18.70
2022-09-09T10:38:15.272Z,19.06
2022-09-09T10:41:43.338Z,19.52
2022-09-09T10:45:02.825Z,18.83
2022-09-09T10:48:27.785Z,19.90
2022-09-09T10:51:42.486Z,20.52
2022-09-09T10:55:04.011Z,19.49
2022-09-09T10:58:05.539Z,18.60
2022-09-09T11:01:17.030Z,18.51
2022-09-09T11:04:27.968Z,18.11
2022-09-09T11:07:40.362Z,18.15
2022-09-09T11:11:03.451Z,18.05
2022-09-09T11:14:43.988Z,17.90
2022-09-09T11:17:51.432Z,18.42
2022-09-09T11:20:57.585Z,18.71
2022-09-09T11:24:01.993Z,18.57
2022-09-09T11:27:22.391Z,18.29
2022-09-09T11:30:57.602Z,18.60
2022-09-09T11:34:15.781Z,18.60
2022-09-09T11:37:47.569Z,18.87
2022-09-09T11:40:44.976Z,19.08
2022-09-09T11:43:49.692Z,18.86
2022-09-09T11:46:50.955Z,18.96
2022-09-09T11:49:48.238Z,18.86
2022-09-09T11:52:48.345Z,18.69
2022-09-09T11:55:45.182Z,18.47
2022-09-09T11:58:46.734Z,18.58
2022-09-09T12:01:45.792Z,18.67
2022-09-09T12:04:55.645Z,18.35
2022-09-09T12:07:58.098Z,18.49
2022-09-09T12:10:57.900Z,18.44
2022-09-09T12:14:01.946Z,18.16
2022-09-09T12:17:16.009Z,18.01
2022-09-09T12:20:16.667Z,18.02
2022-09-09T12:23:20.093Z,18.09
2022-09-09T12:26:45.914Z,17.75
2022-09-09T12:30:10.975Z,17.47
2022-09-09T12:33:17.039Z,17.34
2022-09-09T12:36:22.574Z,17.02
2022-09-09T12:39:40.106Z,16.63
2022-09-09T12:42:41.768Z,16.14
2022-09-09T12:45:42.122Z,16.55
2022-09-09T12:48:45.426Z,16.98
2022-09-09T12:51:44.796Z,17.22
2022-09-09T12:54:51.555Z,16.91
2022-09-09T12:57:52.847Z,16.77
2022-09-09T13:00:57.262Z,17.19
2022-09-09T13:03:54.435Z,18.01
2022-09-09T13:06:53.158Z,18.43
2022-09-09T13:09:50.321Z,18.33
2022-09-09T13:12:47.306Z,18.67
2022-09-09T13:15:57.306Z,18.98
2022-09-09T13:18:54.458Z,19.16
2022-09-09T13:21:51.634Z,18.93
2022-09-09T13:24:48.541Z,18.88
2022-09-09T13:28:04.714Z,19.47
2022-09-09T13:31:08.063Z,19.14
2022-09-09T13:34:30.935Z,19.69
2022-09-09T13:37:38.133Z,18.68
2022-09-09T13:40:35.502Z,18.14
2022-09-09T13:43:39.570Z,18.20
2022-09-09T13:46:38.718Z,18.93
2022-09-09T13:49:35.571Z,19.33
2022-09-09T13:52:32.901Z,19.29
2022-09-09T13:55:30.984Z,19.51
2022-09-09T13:58:27.931Z,19.73
2022-09-09T14:01:29.317Z,19.62
2022-09-09T14:04:26.521Z,19.50
2022-09-09T14:07:23.561Z,19.43
2022-09-09T14:10:20.715Z,19.50
2022-09-09T14:13:17.571Z,19.48
2022-09-09T14:16:14.745Z,19.59
2022-09-09T14:19:13.501Z,19.95
2022-09-09T14:22:10.421Z,19.85
2022-09-09T14:25:08.439Z,19.89
2022-09-09T14:28:05.334Z,19.90
2022-09-09T14:31:04.675Z,20.22
2022-09-09T14:34:01.710Z,19.82
2022-09-09T14:36:58.773Z,20.43
2022-09-09T14:39:56.298Z,20.15
2022-09-09T14:42:54.863Z,19.84
2022-09-09T14:45:52.411Z,19.65
2022-09-09T14:48:49.797Z,19.83
2022-09-09T14:51:46.753Z,20.09
2022-09-09T14:54:43.688Z,20.04
2022-09-09T14:57:41.218Z,19.86
2022-09-09T15:00:38.088Z,20.12
2022-09-09T15:03:35.395Z,19.48
2022-09-09T15:06:38.298Z,19.78
2022-09-09T15:09:35.208Z,19.91
2022-09-09T15:12:32.583Z,19.47
2022-09-09T15:15:29.482Z,19.65
2022-09-09T15:18:26.308Z,19.18
2022-09-09T15:21:26.982Z,19.18
2022-09-09T15:24:24.138Z,19.23
2022-09-09T15:27:21.261Z,19.14
2022-09-09T15:30:18.153Z,19.16
2022-09-09T15:33:15.082Z,19.58
2022-09-09T15:36:19.688Z,19.52
2022-09-09T15:39:18.833Z,19.18
2022-09-09T15:42:15.628Z,19.36
2022-09-09T15:45:13.517Z,19.19
2022-09-09T15:48:10.295Z,18.78
2022-09-09T15:51:19.541Z,19.01
2022-09-09T15:54:26.226Z,18.60
2022-09-09T15:57:23.013Z,18.66
2022-09-09T16:00:21.583Z,18.88
2022-09-09T16:03:18.369Z,19.03
2022-09-09T16:06:16.951Z,18.98
2022-09-09T16:09:13.744Z,18.72
2022-09-09T16:12:12.793Z,18.65
2022-09-09T16:15:10.001Z,18.72
2022-09-09T16:18:06.859Z,18.45
2022-09-09T16:21:06.060Z,18.46
2022-09-09T16:24:05.502Z,18.54
2022-09-09T16:27:02.373Z,18.45
2022-09-09T16:29:59.247Z,18.41
2022-09-09T16:32:56.036Z,18.40
2022-09-09T16:35:52.848Z,18.19
2022-09-09T16:38:53.214Z,18.04
2022-09-09T16:41:50.687Z,18.00
2022-09-09T16:44:47.531Z,17.86
2022-09-09T16:47:45.436Z,18.16
2022-09-09T16:50:42.758Z,17.94
2022-09-09T16:53:39.545Z,17.94
2022-09-09T16:56:42.167Z,18.01
2022-09-09T16:59:39.086Z,18.05
2022-09-09T17:02:35.903Z,18.03
2022-09-09T17:05:33.620Z,18.02
2022-09-09T17:08:31.208Z,17.93
2022-09-09T17:11:29.668Z,17.75
2022-09-09T17:14:26.518Z,17.52
2022-09-09T17:17:31.548Z,17.54
2022-09-09T17:20:40.580Z,17.58
2022-09-09T17:23:42.933Z,17.25
2022-09-09T17:26:41.053Z,17.19
2022-09-09T17:29:38.501Z,17.02
2022-09-09T17:32:36.550Z,16.90
2022-09-09T17:35:34.354Z,16.63
2022-09-09T17:38:31.347Z,16.62
2022-09-09T17:41:39.655Z,16.22
2022-09-09T17:44:36.678Z,16.30
2022-09-09T17:47:33.458Z,16.18
2022-09-09T17:50:30.409Z,16.06
2022-09-09T17:53:28.508Z,15.95
2022-09-09T17:56:29.238Z,15.92
2022-09-09T17:59:26.479Z,15.79
2022-09-09T18:02:23.446Z,15.61
2022-09-09T18:05:21.295Z,15.49
2022-09-09T18:08:18.071Z,15.34
2022-09-09T18:11:15.200Z,15.28
2022-09-09T18:14:17.408Z,15.18
2022-09-09T18:17:14.227Z,15.29
2022-09-09T18:20:11.176Z,15.29
2022-09-09T18:23:07.963Z,15.15
2022-09-09T18:26:15.150Z,15.11
2022-09-09T18:29:16.245Z,14.96
2022-09-09T18:32:14.978Z,14.97
2022-09-09T18:35:11.812Z,15.01
2022-09-09T18:38:08.677Z,14.95
2022-09-09T18:41:24.743Z,14.91
2022-09-09T18:44:27.336Z,14.86
2022-09-09T18:47:24.944Z,14.58
2022-09-09T18:50:21.812Z,14.49
2022-09-09T18:53:21.027Z,14.53
2022-09-09T18:56:18.174Z,14.55
2022-09-09T18:59:19.665Z,14.56
2022-09-09T19:02:16.493Z,14.52
2022-09-09T19:05:13.317Z,14.66
2022-09-09T19:08:10.091Z,14.44
2022-09-09T19:11:09.732Z,14.34
2022-09-09T19:14:10.524Z,14.55
2022-09-09T19:17:07.508Z,14.71
2022-09-09T19:20:05.660Z,14.44
2022-09-09T19:23:02.453Z,14.27
2022-09-09T19:26:03.559Z,14.27
2022-09-09T19:29:02.704Z,14.24
2022-09-09T19:32:36.851Z,14.22
2022-09-09T19:35:19.945Z,14.08
2022-09-09T19:38:16.996Z,14.23
2022-09-09T19:41:19.771Z,14.32
2022-09-09T19:44:17.964Z,14.28
2022-09-09T19:47:15.050Z,14.45
2022-09-09T19:50:12.016Z,14.46
2022-09-09T19:53:08.868Z,14.26
2022-09-09T19:56:06.333Z,14.44
2022-09-09T19:59:05.240Z,14.41
2022-09-09T20:02:02.412Z,14.46
2022-09-09T20:04:59.409Z,14.31
2022-09-09T20:07:56.197Z,14.27
2022-09-09T20:10:54.359Z,14.18
2022-09-09T20:13:51.800Z,14.18
2022-09-09T20:16:49.588Z,14.12
2022-09-09T20:19:46.380Z,13.95
2022-09-09T20:22:43.182Z,14.01
2022-09-09T20:25:39.988Z,13.99
2022-09-09T20:28:39.045Z,13.90
2022-09-09T20:31:40.514Z,13.90
2022-09-09T20:34:37.302Z,13.74
2022-09-09T20:37:34.084Z,13.71
2022-09-09T20:40:33.459Z,13.63
2022-09-09T20:43:30.610Z,13.56
2022-09-09T20:46:36.516Z,13.54
2022-09-09T20:49:35.226Z,13.51
2022-09-09T20:52:32.013Z,13.43
2022-09-09T20:55:31.724Z,13.60
2022-09-09T20:58:33.464Z,13.31
2022-09-09T21:01:30.778Z,13.45
2022-09-09T21:04:27.963Z,13.24
2022-09-09T21:07:24.758Z,13.27
2022-09-09T21:10:21.571Z,13.30
2022-09-09T21:13:19.180Z,13.22
2022-09-09T21:16:21.265Z,12.95
2022-09-09T21:19:18.633Z,13.22
2022-09-09T21:22:15.414Z,12.86
2022-09-09T21:25:13.067Z,12.76
2022-09-09T21:28:11.182Z,12.97
2022-09-09T21:31:13.302Z,12.93
2022-09-09T21:34:10.183Z,12.76
2022-09-09T21:37:09.082Z,12.44
2022-09-09T21:40:07.101Z,12.65
2022-09-09T21:43:10.739Z,12.56
2022-09-09T21:46:16.276Z,12.53
2022-09-09T21:49:14.002Z,12.68
2022-09-09T21:52:10.785Z,12.24
2022-09-09T21:55:09.872Z,12.41
2022-09-09T21:58:06.919Z,12.61
2022-09-09T22:01:14.652Z,12.47
2022-09-09T22:04:11.628Z,12.39
2022-09-09T22:07:08.409Z,12.39
2022-09-09T22:10:07.197Z,12.44
2022-09-09T22:13:04.244Z,12.45
2022-09-09T22:16:07.299Z,12.29
2022-09-09T22:19:04.199Z,12.18
2022-09-09T22:22:00.992Z,12.06
2022-09-09T22:24:57.858Z,12.12
2022-09-09T22:27:55.344Z,12.16
2022-09-09T22:30:52.196Z,11.98
2022-09-09T22:33:49.606Z,12.02
2022-09-09T22:36:46.498Z,12.16
2022-09-09T22:39:43.397Z,12.00
2022-09-09T22:42:41.773Z,11.90
2022-09-09T22:45:38.619Z,12.21
2022-09-09T22:48:37.943Z,11.98
2022-09-09T22:51:34.834Z,11.88
2022-09-09T22:54:31.643Z,11.96
2022-09-09T22:57:28.817Z,12.20
2022-09-09T23:00:27.159Z,11.92
2022-09-09T23:03:27.747Z,11.91
2022-09-09T23:06:27.933Z,11.87
2022-09-09T23:09:24.788Z,11.87
2022-09-09T23:12:22.414Z,11.88
2022-09-09T23:15:19.857Z,12.04
2022-09-09T23:18:16.670Z,11.98
2022-09-09T23:21:15.531Z,11.96
2022-09-09T23:24:15.519Z,12.19
2022-09-09T23:27:12.677Z,12.26
2022-09-09T23:30:11.610Z,12.10
2022-09-09T23:33:08.447Z,12.13
2022-09-09T23:36:08.724Z,12.29
2022-09-09T23:39:08.120Z,12.44
2022-09-09T23:42:06.949Z,12.43
2022-09-09T23:45:04.098Z,12.67
2022-09-09T23:48:00.888Z,12.67
2022-09-09T23:50:59.647Z,12.76
2022-09-09T23:54:00.423Z,12.86
2022-09-09T23:56:57.338Z,13.08
2022-09-09T23:59:54.159Z,13.04
